createdAt,value
2019-03-30T00:00:51.588Z,-924.34
2019-03-30T00:01:51.935Z,-927.42
2019-03-30T00:02:52.400Z,-935.10
2019-03-30T00:03:52.599Z,-930.73
2019-03-30T00:04:52.953Z,-932.34
2019-03-30T00:05:53.272Z,-936.35
2019-03-30T00:06:53.609Z,-931.77
2019-03-30T00:07:53.951Z,-933.02
2019-03-30T00:08:54.283Z,-940.83
2019-03-30T00:09:54.648Z,-931.85
2019-03-30T00:10:55.086Z,-929.15
2019-03-30T00:11:57.718Z,-923.76
2019-03-30T00:12:55.655Z,-927.96
2019-03-30T00:13:55.975Z,-933.92
2019-03-30T00:14:56.304Z,-934.57
2019-03-30T00:15:56.649Z,-932.18
2019-03-30T00:16:56.998Z,-933.60
2019-03-30T00:17:57.351Z,-932.71
2019-03-30T00:18:57.716Z,-942.55
2019-03-30T00:19:57.981Z,-939.37
2019-03-30T00:20:58.340Z,-941.59
2019-03-30T00:21:58.678Z,-933.66
2019-03-30T00:22:59.048Z,-943.37
2019-03-30T00:23:59.352Z,-938.97
2019-03-30T00:24:59.678Z,-937.94
2019-03-30T00:26:00.050Z,-943.01
2019-03-30T00:27:00.397Z,-944.12
2019-03-30T00:28:00.706Z,-933.57
2019-03-30T00:29:01.028Z,-933.95
2019-03-30T00:30:01.368Z,-937.63
2019-03-30T00:31:01.714Z,-939.00
2019-03-30T00:32:02.048Z,-937.06
2019-03-30T00:33:02.441Z,-936.79
2019-03-30T00:34:02.729Z,-938.58
2019-03-30T00:35:03.088Z,-942.23
2019-03-30T00:36:03.523Z,-942.56
2019-03-30T00:37:03.732Z,-946.36
2019-03-30T00:38:04.114Z,-940.27
2019-03-30T00:39:04.417Z,-937.89
2019-03-30T00:40:04.746Z,-946.00
2019-03-30T00:41:05.118Z,-941.09
2019-03-30T00:42:05.420Z,-941.33
2019-03-30T00:43:05.777Z,-945.27
2019-03-30T00:44:06.208Z,-945.24
2019-03-30T00:45:06.414Z,-943.40
2019-03-30T00:46:10.895Z,-949.24
2019-03-30T00:47:07.134Z,-936.43
2019-03-30T00:48:07.476Z,-933.31
2019-03-30T00:49:07.862Z,-937.43
2019-03-30T00:50:08.130Z,-935.29
2019-03-30T00:51:08.482Z,-937.32
2019-03-30T00:52:08.908Z,-941.64
2019-03-30T00:53:09.151Z,-939.50
2019-03-30T00:54:09.499Z,-943.42
2019-03-30T00:55:09.810Z,-941.05
2019-03-30T00:56:10.186Z,-936.61
2019-03-30T00:57:10.467Z,-941.73
2019-03-30T00:58:10.823Z,-938.93
2019-03-30T00:59:11.157Z,-944.00
2019-03-30T01:00:11.527Z,-940.50
2019-03-30T01:01:11.846Z,-936.61
2019-03-30T01:02:12.139Z,-941.54
2019-03-30T01:03:12.498Z,-938.07
2019-03-30T01:04:12.846Z,-942.55
2019-03-30T01:05:13.161Z,-945.26
2019-03-30T01:06:13.524Z,-937.85
2019-03-30T01:07:13.848Z,-941.04
2019-03-30T01:08:14.252Z,-936.74
2019-03-30T01:09:14.557Z,-932.93
2019-03-30T01:10:14.862Z,-938.79
2019-03-30T01:11:15.459Z,-933.52
2019-03-30T01:12:15.548Z,-935.67
2019-03-30T01:13:15.894Z,-929.81
2019-03-30T01:14:16.207Z,-938.21
2019-03-30T01:15:16.550Z,-937.65
2019-03-30T01:16:16.917Z,-932.89
2019-03-30T01:17:17.361Z,-943.98
2019-03-30T01:18:17.573Z,-889.08
2019-03-30T01:19:17.914Z,-885.49
2019-03-30T01:20:18.254Z,-881.50
2019-03-30T01:21:18.608Z,-884.66
2019-03-30T01:22:18.938Z,-940.74
2019-03-30T01:23:19.277Z,-938.94
2019-03-30T01:24:19.590Z,-937.30
2019-03-30T01:25:20.050Z,-940.31
2019-03-30T01:26:20.285Z,-938.54
2019-03-30T01:27:20.620Z,-944.72
2019-03-30T01:28:20.955Z,-938.87
2019-03-30T01:29:21.280Z,-939.66
2019-03-30T01:30:23.274Z,-940.20
2019-03-30T01:31:21.980Z,-940.47
2019-03-30T01:32:22.299Z,-942.79
2019-03-30T01:33:22.687Z,-941.43
2019-03-30T01:34:22.968Z,-941.57
2019-03-30T01:35:23.463Z,-945.46
2019-03-30T01:36:23.687Z,-941.73
2019-03-30T01:37:24.007Z,-940.94
2019-03-30T01:38:24.352Z,-940.26
2019-03-30T01:39:24.709Z,-943.05
2019-03-30T01:40:25.027Z,-938.52
2019-03-30T01:41:25.405Z,-941.02
2019-03-30T01:42:25.700Z,-942.66
2019-03-30T01:43:26.032Z,-941.37
2019-03-30T01:44:26.408Z,-938.61
2019-03-30T01:45:26.718Z,-941.70
2019-03-30T01:46:27.064Z,-944.68
2019-03-30T01:47:27.395Z,-940.87
2019-03-30T01:48:27.730Z,-941.53
2019-03-30T01:49:28.170Z,-941.10
2019-03-30T01:50:28.466Z,-938.98
2019-03-30T01:51:28.768Z,-933.46
2019-03-30T01:52:29.100Z,-887.27
2019-03-30T01:53:29.439Z,-892.21
2019-03-30T01:54:29.839Z,-894.26
2019-03-30T01:55:30.115Z,-892.63
2019-03-30T01:56:30.458Z,-888.25
2019-03-30T01:57:30.792Z,-889.37
2019-03-30T01:58:31.275Z,-890.25
2019-03-30T01:59:31.497Z,-889.43
2019-03-30T02:00:31.799Z,-890.60
2019-03-30T02:01:32.136Z,-941.31
2019-03-30T02:02:32.483Z,-944.05
2019-03-30T02:03:32.835Z,-939.96
2019-03-30T02:04:33.198Z,-946.42
2019-03-30T02:05:33.504Z,-940.92
2019-03-30T02:06:33.939Z,-939.09
2019-03-30T02:07:34.168Z,-937.80
2019-03-30T02:08:34.526Z,-947.38
2019-03-30T02:09:34.902Z,-937.00
2019-03-30T02:10:35.199Z,-942.37
2019-03-30T02:11:35.562Z,-939.28
2019-03-30T02:12:35.879Z,-941.85
2019-03-30T02:13:36.212Z,-943.12
2019-03-30T02:14:36.621Z,-940.64
2019-03-30T02:15:36.885Z,-938.28
2019-03-30T02:16:37.253Z,-939.28
2019-03-30T02:17:37.564Z,-939.35
2019-03-30T02:18:37.887Z,-937.40
2019-03-30T02:19:38.273Z,-939.30
2019-03-30T02:20:38.582Z,-937.28
2019-03-30T02:21:38.948Z,-940.10
2019-03-30T02:22:39.297Z,-937.09
2019-03-30T02:23:39.633Z,-939.56
2019-03-30T02:24:39.969Z,-937.36
2019-03-30T02:25:40.269Z,-937.90
2019-03-30T02:26:40.644Z,-943.64
2019-03-30T02:27:40.964Z,-939.91
2019-03-30T02:28:41.286Z,-934.62
2019-03-30T02:29:41.623Z,-940.51
2019-03-30T02:30:42.081Z,-945.03
2019-03-30T02:31:42.424Z,-943.88
2019-03-30T02:32:42.628Z,-940.61
2019-03-30T02:33:42.953Z,-944.28
2019-03-30T02:34:43.324Z,-941.84
2019-03-30T02:35:43.662Z,-945.86
2019-03-30T02:36:43.986Z,-943.36
2019-03-30T02:37:44.339Z,-943.30
2019-03-30T02:38:44.760Z,-945.46
2019-03-30T02:39:45.116Z,-940.84
2019-03-30T02:40:45.363Z,-945.82
2019-03-30T02:41:45.683Z,-943.89
2019-03-30T02:42:46.039Z,-942.87
2019-03-30T02:43:46.372Z,-949.34
2019-03-30T02:44:46.717Z,-939.97
2019-03-30T02:45:47.067Z,-945.69
2019-03-30T02:46:47.378Z,-944.17
2019-03-30T02:47:47.931Z,-946.65
2019-03-30T02:48:48.274Z,-943.73
2019-03-30T02:49:48.391Z,-946.20
2019-03-30T02:50:50.367Z,-945.44
2019-03-30T02:51:49.062Z,-941.97
2019-03-30T02:52:49.418Z,-946.48
2019-03-30T02:53:49.743Z,-946.92
2019-03-30T02:54:50.092Z,-944.86
2019-03-30T02:55:50.465Z,-945.50
2019-03-30T02:56:50.740Z,-936.77
2019-03-30T02:57:51.085Z,-935.10
2019-03-30T02:58:51.427Z,-934.74
2019-03-30T02:59:51.767Z,-939.59
2019-03-30T03:00:52.110Z,-937.24
2019-03-30T03:01:52.411Z,-940.03
2019-03-30T03:02:52.777Z,-942.48
2019-03-30T03:03:53.124Z,-944.27
2019-03-30T03:04:53.545Z,-941.07
2019-03-30T03:05:53.785Z,-941.05
2019-03-30T03:06:54.089Z,-935.05
2019-03-30T03:07:54.479Z,-946.06
2019-03-30T03:08:54.783Z,-942.57
2019-03-30T03:09:55.143Z,-942.84
2019-03-30T03:10:55.950Z,-934.13
2019-03-30T03:11:55.798Z,-936.93
2019-03-30T03:12:56.289Z,-936.85
2019-03-30T03:13:56.480Z,-941.36
2019-03-30T03:14:56.821Z,-940.32
2019-03-30T03:15:57.154Z,-940.47
2019-03-30T03:16:57.479Z,-939.68
2019-03-30T03:17:57.847Z,-942.92
2019-03-30T03:18:58.185Z,-937.21
2019-03-30T03:19:58.528Z,-939.62
2019-03-30T03:21:07.526Z,-943.74
2019-03-30T03:22:00.162Z,-939.90
2019-03-30T03:22:59.531Z,-945.99
2019-03-30T03:23:59.869Z,-945.60
2019-03-30T03:25:00.567Z,-942.40
2019-03-30T03:26:00.559Z,-945.26
2019-03-30T03:27:00.883Z,-941.97
2019-03-30T03:28:01.241Z,-941.18
2019-03-30T03:29:01.591Z,-938.10
2019-03-30T03:30:01.893Z,-944.10
2019-03-30T03:31:02.262Z,-939.83
2019-03-30T03:32:02.554Z,-937.45
2019-03-30T03:33:02.909Z,-940.02
2019-03-30T03:34:03.214Z,-938.98
2019-03-30T03:35:03.568Z,-942.65
2019-03-30T03:36:03.928Z,-945.73
2019-03-30T03:37:04.305Z,-943.98
2019-03-30T03:38:04.680Z,-948.19
2019-03-30T03:39:04.906Z,-943.01
2019-03-30T03:40:05.262Z,-938.53
2019-03-30T03:41:05.643Z,-944.48
2019-03-30T03:42:06.007Z,-940.72
2019-03-30T03:43:06.328Z,-948.36
2019-03-30T03:44:06.657Z,-946.80
2019-03-30T03:45:06.977Z,-947.72
2019-03-30T03:46:07.884Z,-947.83
2019-03-30T03:47:07.681Z,-948.15
2019-03-30T03:48:08.036Z,-944.18
2019-03-30T03:49:08.357Z,-946.18
2019-03-30T03:50:08.669Z,-940.55
2019-03-30T03:51:24.474Z,-939.07
2019-03-30T03:52:10.369Z,-936.71
2019-03-30T03:53:09.732Z,-943.40
2019-03-30T03:54:10.114Z,-939.70
2019-03-30T03:55:10.394Z,-939.56
2019-03-30T03:56:10.763Z,-945.23
2019-03-30T03:57:11.084Z,-946.73
2019-03-30T03:58:11.528Z,-943.48
2019-03-30T03:59:11.764Z,-941.82
2019-03-30T04:00:12.093Z,-944.52
2019-03-30T04:01:12.450Z,-942.89
2019-03-30T04:02:12.848Z,-946.00
2019-03-30T04:03:13.117Z,-946.34
2019-03-30T04:04:13.444Z,-938.84
2019-03-30T04:05:13.783Z,-951.61
2019-03-30T04:06:14.247Z,-950.00
2019-03-30T04:07:14.457Z,-949.26
2019-03-30T04:08:14.816Z,-951.52
2019-03-30T04:09:15.129Z,-951.97
2019-03-30T04:10:15.505Z,-946.13
2019-03-30T04:11:15.919Z,-953.31
2019-03-30T04:12:16.361Z,-951.37
2019-03-30T04:13:16.645Z,-946.39
2019-03-30T04:14:16.969Z,-948.53
2019-03-30T04:15:17.312Z,-949.84
2019-03-30T04:16:17.916Z,-948.31
2019-03-30T04:17:18.000Z,-943.45
2019-03-30T04:18:18.357Z,-945.66
2019-03-30T04:19:18.771Z,-946.28
2019-03-30T04:20:19.029Z,-947.54
2019-03-30T04:21:19.406Z,-945.39
2019-03-30T04:22:19.704Z,-945.17
2019-03-30T04:23:20.079Z,-943.33
2019-03-30T04:24:20.461Z,-945.24
2019-03-30T04:25:20.769Z,-939.66
2019-03-30T04:26:21.151Z,-945.48
2019-03-30T04:27:21.556Z,-951.20
2019-03-30T04:28:22.037Z,-946.49
2019-03-30T04:29:22.186Z,-950.02
2019-03-30T04:30:22.496Z,-943.32
2019-03-30T04:31:22.877Z,-947.45
2019-03-30T04:32:23.284Z,-948.25
2019-03-30T04:33:23.543Z,-946.21
2019-03-30T04:34:23.849Z,-949.36
2019-03-30T04:35:24.261Z,-951.05
2019-03-30T04:36:24.560Z,-947.73
2019-03-30T04:37:24.890Z,-947.13
2019-03-30T04:38:25.251Z,-947.44
2019-03-30T04:39:25.554Z,-944.70
2019-03-30T04:40:25.923Z,-946.76
2019-03-30T04:41:26.315Z,-943.44
2019-03-30T04:42:26.609Z,-946.63
2019-03-30T04:43:27.031Z,-939.89
2019-03-30T04:44:27.201Z,-941.74
2019-03-30T04:45:27.548Z,-939.41
2019-03-30T04:46:27.917Z,-940.46
2019-03-30T04:47:28.226Z,-946.34
2019-03-30T04:48:29.520Z,-943.46
2019-03-30T04:49:28.926Z,-947.16
2019-03-30T04:50:29.267Z,-944.95
2019-03-30T04:51:29.883Z,-946.55
2019-03-30T04:52:30.069Z,-951.43
2019-03-30T04:53:30.347Z,-947.56
2019-03-30T04:54:30.678Z,-946.69
2019-03-30T04:55:31.026Z,-942.06
2019-03-30T04:56:31.727Z,-945.98
2019-03-30T04:57:31.737Z,-953.71
2019-03-30T04:58:32.081Z,-949.68
2019-03-30T04:59:32.454Z,-945.72
2019-03-30T05:00:32.869Z,-946.03
2019-03-30T05:01:33.200Z,-940.50
2019-03-30T05:02:33.471Z,-946.29
2019-03-30T05:03:33.813Z,-946.25
2019-03-30T05:04:34.170Z,-945.97
2019-03-30T05:05:34.480Z,-944.83
2019-03-30T05:06:34.880Z,-944.67
2019-03-30T05:07:35.187Z,-944.82
2019-03-30T05:08:35.617Z,-947.82
2019-03-30T05:09:35.882Z,-946.14
2019-03-30T05:10:36.194Z,-947.50
2019-03-30T05:11:36.591Z,-938.69
2019-03-30T05:12:36.895Z,-945.40
2019-03-30T05:13:37.241Z,-945.51
2019-03-30T05:14:37.601Z,-943.19
2019-03-30T05:15:37.939Z,-953.08
2019-03-30T05:16:38.346Z,-944.84
2019-03-30T05:17:46.934Z,-947.58
2019-03-30T05:18:39.967Z,-940.03
2019-03-30T05:19:39.326Z,-949.87
2019-03-30T05:20:39.678Z,-946.91
2019-03-30T05:21:40.023Z,-945.67
2019-03-30T05:22:40.318Z,-948.15
2019-03-30T05:23:40.669Z,-951.04
2019-03-30T05:24:41.089Z,-946.49
2019-03-30T05:25:41.386Z,-950.59
2019-03-30T05:26:41.736Z,-943.77
2019-03-30T05:27:42.084Z,-949.55
2019-03-30T05:28:42.387Z,-950.92
2019-03-30T05:29:42.767Z,-947.94
2019-03-30T05:30:43.131Z,-946.29
2019-03-30T05:31:43.461Z,-942.28
2019-03-30T05:32:43.809Z,-949.88
2019-03-30T05:33:44.203Z,-946.43
2019-03-30T05:34:44.488Z,-948.17
2019-03-30T05:35:44.827Z,-948.72
2019-03-30T05:36:45.183Z,-941.74
2019-03-30T05:37:45.513Z,-946.29
2019-03-30T05:38:45.858Z,-949.49
2019-03-30T05:39:46.202Z,-944.00
2019-03-30T05:40:46.531Z,-942.93
2019-03-30T05:41:47.036Z,-948.28
2019-03-30T05:42:47.237Z,-946.23
2019-03-30T05:43:47.552Z,-944.79
2019-03-30T05:44:47.935Z,-941.69
2019-03-30T05:45:48.286Z,-939.41
2019-03-30T05:46:48.648Z,-943.76
2019-03-30T05:47:48.980Z,-943.65
2019-03-30T05:48:49.312Z,-945.44
2019-03-30T05:49:49.716Z,-946.15
2019-03-30T05:50:49.986Z,-945.27
2019-03-30T05:51:50.367Z,-947.50
2019-03-30T05:52:50.721Z,-944.95
2019-03-30T05:53:51.037Z,-948.27
2019-03-30T05:54:51.397Z,-946.22
2019-03-30T05:55:51.708Z,-947.93
2019-03-30T05:56:52.054Z,-947.82
2019-03-30T05:57:52.506Z,-947.49
2019-03-30T05:58:52.734Z,-948.60
2019-03-30T05:59:55.659Z,-949.38
2019-03-30T06:00:53.429Z,-951.95
2019-03-30T06:01:53.763Z,-949.13
2019-03-30T06:02:54.193Z,-946.52
2019-03-30T06:03:54.505Z,-947.27
2019-03-30T06:04:54.870Z,-947.75
2019-03-30T06:05:55.212Z,-943.95
2019-03-30T06:06:55.575Z,-944.52
2019-03-30T06:07:55.926Z,-946.39
2019-03-30T06:08:56.463Z,-945.91
2019-03-30T06:09:56.578Z,-942.92
2019-03-30T06:10:56.912Z,-949.99
2019-03-30T06:11:57.257Z,-949.01
2019-03-30T06:12:57.651Z,-946.41
2019-03-30T06:13:57.940Z,-946.36
2019-03-30T06:14:58.411Z,-946.09
2019-03-30T06:15:58.647Z,-947.55
2019-03-30T06:16:58.992Z,-947.28
2019-03-30T06:17:59.363Z,-950.72
2019-03-30T06:18:59.666Z,-944.70
2019-03-30T06:20:00.048Z,-948.00
2019-03-30T06:21:00.378Z,-945.59
2019-03-30T06:22:00.724Z,-944.31
2019-03-30T06:23:01.248Z,-945.82
2019-03-30T06:24:01.385Z,-944.79
2019-03-30T06:25:01.770Z,-946.85
2019-03-30T06:26:02.091Z,-943.77
2019-03-30T06:27:02.427Z,-898.62
2019-03-30T06:28:02.824Z,-894.22
2019-03-30T06:29:03.125Z,-893.70
2019-03-30T06:30:03.481Z,-899.24
2019-03-30T06:31:03.864Z,-892.12
2019-03-30T06:32:04.140Z,-886.78
2019-03-30T06:33:04.529Z,-887.50
2019-03-30T06:34:04.831Z,-889.49
2019-03-30T06:35:05.198Z,-891.67
2019-03-30T06:36:05.502Z,-891.23
2019-03-30T06:37:05.860Z,-887.93
2019-03-30T06:38:06.265Z,-890.89
2019-03-30T06:39:06.584Z,-893.01
2019-03-30T06:40:06.922Z,-892.34
2019-03-30T06:41:07.232Z,-891.11
2019-03-30T06:42:07.590Z,-890.73
2019-03-30T06:43:08.162Z,-894.06
2019-03-30T06:44:08.277Z,-892.94
2019-03-30T06:45:08.626Z,-891.01
2019-03-30T06:46:08.966Z,-889.04
2019-03-30T06:47:09.322Z,-887.36
2019-03-30T06:48:09.802Z,-884.37
2019-03-30T06:49:10.003Z,-889.62
2019-03-30T06:50:10.356Z,-891.74
2019-03-30T06:51:10.675Z,-888.84
2019-03-30T06:52:11.053Z,-892.40
2019-03-30T06:53:11.409Z,-891.97
2019-03-30T06:54:14.555Z,-887.38
2019-03-30T06:55:12.168Z,-886.70
2019-03-30T06:56:12.541Z,-884.91
2019-03-30T06:57:12.770Z,-883.63
2019-03-30T06:58:13.126Z,-884.03
2019-03-30T06:59:13.461Z,-886.94
2019-03-30T07:00:13.796Z,-883.64
2019-03-30T07:01:14.144Z,-884.68
2019-03-30T07:02:14.471Z,-884.35
2019-03-30T07:03:14.846Z,-890.98
2019-03-30T07:04:15.250Z,-887.15
2019-03-30T07:05:15.519Z,-887.07
2019-03-30T07:06:15.889Z,-888.05
2019-03-30T07:07:16.227Z,-888.42
2019-03-30T07:08:16.575Z,-880.00
2019-03-30T07:09:16.928Z,-882.42
2019-03-30T07:10:17.261Z,-884.66
2019-03-30T07:11:21.347Z,-884.14
2019-03-30T07:12:18.014Z,-884.39
2019-03-30T07:13:18.289Z,-889.31
2019-03-30T07:14:18.631Z,-885.16
2019-03-30T07:15:18.982Z,-886.80
2019-03-30T07:16:19.347Z,-884.74
2019-03-30T07:17:19.673Z,-883.58
2019-03-30T07:18:20.041Z,-885.07
2019-03-30T07:19:20.375Z,-886.35
2019-03-30T07:20:20.718Z,-884.01
2019-03-30T07:21:21.161Z,-885.17
2019-03-30T07:22:21.420Z,-884.51
2019-03-30T07:23:21.759Z,-884.47
2019-03-30T07:24:22.068Z,-888.31
2019-03-30T07:25:22.414Z,-882.69
2019-03-30T07:26:22.787Z,-888.13
2019-03-30T07:27:23.115Z,-886.68
2019-03-30T07:28:23.481Z,-883.25
2019-03-30T07:29:23.909Z,-883.75
2019-03-30T07:30:24.145Z,-880.37
2019-03-30T07:31:24.516Z,-886.01
2019-03-30T07:32:24.848Z,-882.59
2019-03-30T07:33:25.221Z,-882.38
2019-03-30T07:34:25.552Z,-882.57
2019-03-30T07:35:25.874Z,-884.56
2019-03-30T07:36:26.237Z,-882.45
2019-03-30T07:37:26.663Z,-883.00
2019-03-30T07:38:26.924Z,-882.17
2019-03-30T07:39:27.286Z,-878.15
2019-03-30T07:40:27.597Z,-884.01
2019-03-30T07:41:27.945Z,-884.51
2019-03-30T07:42:28.288Z,-878.73
2019-03-30T07:43:28.653Z,-884.85
2019-03-30T07:44:28.996Z,-883.29
2019-03-30T07:45:29.355Z,-884.45
2019-03-30T07:46:29.665Z,-887.91
2019-03-30T07:47:29.986Z,-881.68
2019-03-30T07:48:30.615Z,-885.99
2019-03-30T07:49:30.681Z,-885.21
2019-03-30T07:50:31.029Z,-888.39
2019-03-30T07:51:33.149Z,-881.62
2019-03-30T07:52:31.761Z,-883.31
2019-03-30T07:53:43.573Z,-880.20
2019-03-30T07:54:33.433Z,-884.92
2019-03-30T07:55:32.765Z,-884.79
2019-03-30T07:56:33.145Z,-882.64
2019-03-30T07:57:33.445Z,-882.86
2019-03-30T07:58:33.797Z,-881.24
2019-03-30T07:59:34.153Z,-879.77
2019-03-30T08:00:34.515Z,-884.66
2019-03-30T08:01:34.861Z,-877.95
2019-03-30T08:02:35.298Z,-877.71
2019-03-30T08:03:35.512Z,-872.10
2019-03-30T08:04:35.883Z,-871.57
2019-03-30T08:05:36.305Z,-878.96
2019-03-30T08:06:36.595Z,-881.90
2019-03-30T08:07:36.915Z,-877.81
2019-03-30T08:08:37.262Z,-881.43
2019-03-30T08:09:37.591Z,-881.86
2019-03-30T08:10:38.079Z,-879.97
2019-03-30T08:11:38.323Z,-889.65
2019-03-30T08:12:38.645Z,-885.31
2019-03-30T08:13:38.984Z,-884.94
2019-03-30T08:14:39.408Z,-878.75
2019-03-30T08:15:39.703Z,-885.07
2019-03-30T08:16:40.070Z,-887.25
2019-03-30T08:17:40.396Z,-885.97
2019-03-30T08:18:40.763Z,-887.73
2019-03-30T08:19:41.085Z,-885.39
2019-03-30T08:20:41.408Z,-881.26
2019-03-30T08:21:41.782Z,-886.36
2019-03-30T08:22:42.106Z,-885.61
2019-03-30T08:23:42.452Z,-886.20
2019-03-30T08:24:42.813Z,-888.09
2019-03-30T08:25:43.152Z,-886.57
2019-03-30T08:26:43.522Z,-883.20
2019-03-30T08:27:43.810Z,-893.30
2019-03-30T08:28:44.164Z,-888.95
2019-03-30T08:29:44.528Z,-889.37
2019-03-30T08:30:44.863Z,-883.66
2019-03-30T08:31:45.219Z,-884.08
2019-03-30T08:32:45.529Z,-891.08
2019-03-30T08:33:45.896Z,-878.67
2019-03-30T08:34:46.281Z,-878.59
2019-03-30T08:35:46.736Z,-893.67
2019-03-30T08:36:46.968Z,-888.60
2019-03-30T08:37:47.352Z,-893.45
2019-03-30T08:38:47.647Z,-887.75
2019-03-30T08:39:48.020Z,-889.11
2019-03-30T08:40:48.444Z,-830.19
2019-03-30T08:41:49.032Z,-870.56
2019-03-30T08:42:49.145Z,-875.01
2019-03-30T08:43:50.126Z,-866.05
2019-03-30T08:44:50.032Z,-880.59
2019-03-30T08:45:51.376Z,-879.10
2019-03-30T08:46:50.425Z,-884.48
2019-03-30T08:47:50.748Z,-878.61
2019-03-30T08:48:51.073Z,-885.02
2019-03-30T08:49:51.450Z,-881.02
2019-03-30T08:50:51.805Z,-876.46
2019-03-30T08:51:53.033Z,-873.27
2019-03-30T08:52:52.451Z,-879.63
2019-03-30T08:53:54.849Z,-889.49
2019-03-30T08:54:53.595Z,-886.22
2019-03-30T08:55:53.970Z,-878.72
2019-03-30T08:56:53.850Z,-873.84
2019-03-30T08:57:54.177Z,-881.68
2019-03-30T08:58:54.513Z,-886.85
2019-03-30T08:59:54.915Z,-898.55
2019-03-30T09:00:55.210Z,-889.09
2019-03-30T09:01:55.584Z,-888.23
2019-03-30T09:02:55.887Z,-891.56
2019-03-30T09:03:57.536Z,-886.84
2019-03-30T09:05:06.030Z,-890.54
2019-03-30T09:06:00.037Z,-895.46
2019-03-30T09:06:57.294Z,-894.68
2019-03-30T09:07:57.661Z,-896.09
2019-03-30T09:09:01.129Z,-892.19
2019-03-30T09:09:58.338Z,-899.89
2019-03-30T09:10:58.666Z,-901.34
2019-03-30T09:11:58.997Z,-906.90
2019-03-30T09:12:59.353Z,-871.20
2019-03-30T09:14:06.051Z,-875.23
2019-03-30T09:15:00.172Z,-894.66
2019-03-30T09:16:01.576Z,-876.67
2019-03-30T09:17:01.948Z,-883.60
2019-03-30T09:18:01.108Z,-885.69
2019-03-30T09:19:02.128Z,-892.60
2019-03-30T09:20:05.537Z,-896.50
2019-03-30T09:21:02.144Z,-898.46
2019-03-30T09:22:02.575Z,-898.36
2019-03-30T09:23:03.051Z,-893.19
2019-03-30T09:24:10.111Z,-898.12
2019-03-30T09:25:03.603Z,-891.23
2019-03-30T09:26:07.348Z,-898.22
2019-03-30T09:27:05.046Z,-901.74
2019-03-30T09:28:08.866Z,-897.66
2019-03-30T09:29:05.524Z,-906.92
2019-03-30T09:30:06.005Z,-904.79
2019-03-30T09:31:06.043Z,-917.44
2019-03-30T09:32:14.253Z,-911.42
2019-03-30T09:33:07.305Z,-911.46
2019-03-30T09:34:07.045Z,-903.09
2019-03-30T09:35:06.952Z,-897.67
2019-03-30T09:36:07.374Z,-896.33
2019-03-30T09:37:08.825Z,-882.03
2019-03-30T09:38:10.394Z,-896.78
2019-03-30T09:39:09.372Z,-900.65
2019-03-30T09:40:08.675Z,-894.95
2019-03-30T09:41:10.039Z,-887.23
2019-03-30T09:42:16.196Z,-896.57
2019-03-30T09:43:12.049Z,-885.63
2019-03-30T09:44:10.550Z,-899.30
2019-03-30T09:45:14.799Z,-904.12
2019-03-30T09:46:12.354Z,-906.46
2019-03-30T09:47:11.566Z,-904.44
2019-03-30T09:48:11.466Z,-903.51
2019-03-30T09:49:11.794Z,-900.40
2019-03-30T09:50:13.042Z,-901.08
2019-03-30T09:51:12.556Z,-901.06
2019-03-30T09:52:13.690Z,-902.73
2019-03-30T09:53:14.573Z,-896.97
2019-03-30T09:54:23.133Z,-901.71
2019-03-30T09:55:14.870Z,-813.84
2019-03-30T09:56:15.071Z,-819.21
2019-03-30T09:57:14.564Z,-831.24
2019-03-30T09:58:14.969Z,-863.43
2019-03-30T09:59:15.214Z,-881.20
2019-03-30T10:00:15.558Z,-880.81
2019-03-30T10:01:15.905Z,-889.11
2019-03-30T10:02:16.242Z,-903.24
2019-03-30T10:03:16.609Z,-890.41
2019-03-30T10:04:16.976Z,-911.02
2019-03-30T10:05:17.299Z,-909.51
2019-03-30T10:06:17.735Z,-896.57
2019-03-30T10:07:19.651Z,-887.90
2019-03-30T10:08:18.321Z,-899.58
2019-03-30T10:09:18.643Z,-900.08
2019-03-30T10:10:19.554Z,-905.53
2019-03-30T10:11:19.563Z,-901.29
2019-03-30T10:12:19.665Z,-896.51
2019-03-30T10:13:21.698Z,-894.22
2019-03-30T10:14:20.435Z,-897.71
2019-03-30T10:15:21.566Z,-888.03
2019-03-30T10:16:21.307Z,-899.65
2019-03-30T10:17:21.405Z,-898.04
2019-03-30T10:18:21.748Z,-904.50
2019-03-30T10:19:22.097Z,-902.24
2019-03-30T10:20:22.460Z,-902.56
2019-03-30T10:21:22.855Z,-905.78
2019-03-30T10:22:23.217Z,-897.14
2019-03-30T10:23:23.578Z,-897.83
2019-03-30T10:24:36.998Z,-896.19
2019-03-30T10:25:25.262Z,-894.49
2019-03-30T10:26:24.643Z,-884.54
2019-03-30T10:27:24.956Z,-892.98
2019-03-30T10:28:25.319Z,-886.08
2019-03-30T10:29:26.070Z,-896.54
2019-03-30T10:30:25.985Z,-888.51
2019-03-30T10:31:26.528Z,-899.62
2019-03-30T10:32:28.439Z,-882.64
2019-03-30T10:33:27.558Z,-895.89
2019-03-30T10:34:28.061Z,-882.67
2019-03-30T10:35:27.737Z,-886.86
2019-03-30T10:36:28.124Z,-852.51
2019-03-30T10:37:28.405Z,-842.61
2019-03-30T10:38:28.778Z,-882.99
2019-03-30T10:39:29.188Z,-878.39
2019-03-30T10:40:29.433Z,-892.70
2019-03-30T10:41:30.560Z,-887.63
2019-03-30T10:42:32.077Z,-888.40
2019-03-30T10:43:31.062Z,-895.74
2019-03-30T10:44:32.573Z,-891.66
2019-03-30T10:45:31.345Z,-943.30
2019-03-30T10:46:33.136Z,-933.65
2019-03-30T10:47:31.945Z,-932.22
2019-03-30T10:48:32.563Z,-937.49
2019-03-30T10:49:32.539Z,-942.39
2019-03-30T10:50:32.877Z,-945.44
2019-03-30T10:51:49.806Z,-935.62
2019-03-30T10:52:33.609Z,-947.61
2019-03-30T10:53:33.952Z,-933.74
2019-03-30T10:54:34.281Z,-941.72
2019-03-30T10:55:35.065Z,-853.18
2019-03-30T10:56:35.006Z,-934.15
2019-03-30T10:57:35.568Z,-940.19
2019-03-30T10:58:35.682Z,-942.98
2019-03-30T10:59:36.009Z,-881.08
2019-03-30T11:00:36.348Z,-943.81
2019-03-30T11:01:36.734Z,-947.33
2019-03-30T11:02:37.038Z,-943.38
2019-03-30T11:03:37.421Z,-935.98
2019-03-30T11:04:37.888Z,-934.09
2019-03-30T11:05:38.320Z,-869.99
2019-03-30T11:06:38.451Z,-922.23
2019-03-30T11:07:38.793Z,-932.27
2019-03-30T11:08:39.116Z,-935.56
2019-03-30T11:09:40.075Z,-927.42
2019-03-30T11:10:39.810Z,-934.71
2019-03-30T11:11:40.171Z,-944.42
2019-03-30T11:12:41.578Z,-939.92
2019-03-30T11:13:40.841Z,-943.45
2019-03-30T11:14:41.272Z,-951.84
2019-03-30T11:15:41.532Z,-934.63
2019-03-30T11:16:54.075Z,-934.70
2019-03-30T11:17:43.248Z,-921.09
2019-03-30T11:18:42.598Z,-937.80
2019-03-30T11:19:42.903Z,-951.84
2019-03-30T11:20:43.327Z,-941.15
2019-03-30T11:21:43.608Z,-938.23
2019-03-30T11:22:43.953Z,-945.06
2019-03-30T11:23:44.290Z,-962.49
2019-03-30T11:24:44.634Z,-937.62
2019-03-30T11:25:45.074Z,-943.12
2019-03-30T11:26:45.340Z,-932.05
2019-03-30T11:27:45.693Z,-951.22
2019-03-30T11:28:46.088Z,-941.70
2019-03-30T11:29:46.357Z,-934.11
2019-03-30T11:30:46.683Z,-947.74
2019-03-30T11:31:47.068Z,-933.80
2019-03-30T11:32:47.448Z,-944.32
2019-03-30T11:33:47.766Z,-960.71
2019-03-30T11:34:48.129Z,-946.41
2019-03-30T11:35:48.446Z,-960.25
2019-03-30T11:36:48.824Z,-957.20
2019-03-30T11:37:49.225Z,-937.09
2019-03-30T11:38:49.485Z,-957.06
2019-03-30T11:39:49.851Z,-947.23
2019-03-30T11:40:50.176Z,-941.39
2019-03-30T11:41:50.556Z,-937.14
2019-03-30T11:42:50.877Z,-931.67
2019-03-30T11:43:51.214Z,-936.33
2019-03-30T11:44:51.588Z,-956.52
2019-03-30T11:45:52.045Z,-933.07
2019-03-30T11:46:52.295Z,-934.23
2019-03-30T11:47:52.628Z,-934.04
2019-03-30T11:48:52.993Z,-939.30
2019-03-30T11:49:53.347Z,-942.99
2019-03-30T11:50:53.671Z,-938.14
2019-03-30T11:51:54.042Z,-941.50
2019-03-30T11:52:54.340Z,-937.65
2019-03-30T11:53:54.840Z,-928.75
2019-03-30T11:54:55.106Z,-934.28
2019-03-30T11:55:55.420Z,-922.83
2019-03-30T11:56:55.770Z,-928.63
2019-03-30T11:57:56.094Z,-934.76
2019-03-30T11:58:56.445Z,-911.23
2019-03-30T11:59:56.804Z,-921.41
2019-03-30T12:00:57.124Z,-924.34
2019-03-30T12:01:57.538Z,-936.20
2019-03-30T12:02:57.796Z,-937.97
2019-03-30T12:03:58.148Z,-928.22
2019-03-30T12:04:58.518Z,-934.75
2019-03-30T12:05:58.859Z,-918.62
2019-03-30T12:06:59.263Z,-937.86
2019-03-30T12:07:59.544Z,-930.63
2019-03-30T12:09:03.728Z,-922.74
2019-03-30T12:10:03.585Z,-922.68